createdAt,value
2022-11-12T00:00:12.381Z,2.03
2022-11-12T00:02:40.622Z,1.80
2022-11-12T00:05:09.648Z,2.70
2022-11-12T00:07:37.889Z,1.77
2022-11-12T00:10:07.394Z,2.00
2022-11-12T00:12:37.427Z,2.10
2022-11-12T00:15:06.920Z,2.20
2022-11-12T00:17:36.679Z,2.50
2022-11-12T00:20:06.357Z,2.07
2022-11-12T00:22:35.067Z,1.80
2022-11-12T00:25:04.854Z,2.07
2022-11-12T00:27:35.574Z,1.47
2022-11-12T00:30:14.335Z,1.70
2022-11-12T00:32:46.222Z,1.70
2022-11-12T00:35:20.229Z,1.80
2022-11-12T00:37:56.302Z,2.03
2022-11-12T00:40:34.464Z,2.67
2022-11-12T00:43:03.741Z,2.27
2022-11-12T00:45:39.625Z,2.83
2022-11-12T00:48:14.029Z,2.03
2022-11-12T00:50:48.325Z,2.90
2022-11-12T00:53:18.552Z,2.87
2022-11-12T00:55:50.784Z,3.13
2022-11-12T00:58:19.490Z,2.57
2022-11-12T01:00:52.164Z,2.87
2022-11-12T01:03:23.090Z,2.60
2022-11-12T01:05:54.435Z,2.90
2022-11-12T01:08:24.657Z,2.97
2022-11-12T01:13:50.211Z,3.23
2022-11-12T01:16:22.294Z,3.13
2022-11-12T01:18:56.804Z,2.57
2022-11-12T01:21:27.189Z,2.83
2022-11-12T01:24:04.429Z,2.90
2022-11-12T01:26:35.190Z,2.77
2022-11-12T01:29:35.087Z,2.83
2022-11-12T01:32:04.660Z,2.70
2022-11-12T01:34:35.284Z,2.73
2022-11-12T01:37:06.531Z,2.40
2022-11-12T01:39:34.810Z,3.30
2022-11-12T01:42:06.249Z,2.43
2022-11-12T01:44:37.299Z,3.10
2022-11-12T01:47:13.146Z,2.57
2022-11-12T01:49:53.193Z,2.60
2022-11-12T01:52:28.653Z,3.00
2022-11-12T01:55:02.435Z,2.93
2022-11-12T01:57:35.266Z,2.43
2022-11-12T02:00:10.574Z,2.43
2022-11-12T02:02:39.873Z,3.37
2022-11-12T02:05:12.042Z,2.47
2022-11-12T02:07:43.182Z,2.10
2022-11-12T02:10:11.771Z,2.20
2022-11-12T02:12:57.634Z,3.30
2022-11-12T02:15:27.162Z,2.63
2022-11-12T02:17:56.304Z,2.20
2022-11-12T02:20:27.850Z,3.03
2022-11-12T02:23:07.050Z,2.63
2022-11-12T02:25:42.432Z,2.50
2022-11-12T02:28:17.672Z,3.10
2022-11-12T02:30:55.062Z,3.60
2022-11-12T02:33:38.047Z,3.30
2022-11-12T02:36:10.100Z,2.97
2022-11-12T02:38:40.016Z,3.20
2022-11-12T02:41:08.399Z,4.90
2022-11-12T02:43:37.382Z,3.67
2022-11-12T02:46:06.687Z,3.57
2022-11-12T02:48:36.294Z,3.73
2022-11-12T02:51:07.800Z,5.07
2022-11-12T02:53:36.625Z,4.67
2022-11-12T02:56:08.575Z,4.73
2022-11-12T02:58:37.733Z,5.60
2022-11-12T03:01:06.759Z,5.30
2022-11-12T03:03:38.566Z,5.47
2022-11-12T03:06:14.916Z,4.70
2022-11-12T03:08:45.325Z,4.77
2022-11-12T03:11:18.213Z,5.70
2022-11-12T03:13:48.474Z,5.00
2022-11-12T03:16:17.012Z,5.60
2022-11-12T03:18:45.418Z,5.00
2022-11-12T03:21:14.382Z,5.87
2022-11-12T03:23:47.694Z,5.53
2022-11-12T03:26:17.485Z,5.60
2022-11-12T03:28:46.516Z,7.13
2022-11-12T03:31:15.507Z,5.93
2022-11-12T03:34:14.779Z,5.80
2022-11-12T03:36:46.579Z,5.50
2022-11-12T03:39:18.544Z,6.30
2022-11-12T03:42:19.554Z,6.70
2022-11-12T03:44:48.166Z,5.73
2022-11-12T03:47:17.424Z,8.43
2022-11-12T03:49:45.600Z,6.93
2022-11-12T03:52:13.913Z,5.70
2022-11-12T03:54:42.260Z,5.90
2022-11-12T03:57:12.374Z,6.00
2022-11-12T03:59:40.893Z,5.37
2022-11-12T04:02:14.649Z,6.10
2022-11-12T04:05:00.464Z,5.30
2022-11-12T04:07:49.349Z,5.33
2022-11-12T04:10:18.012Z,5.77
2022-11-12T04:13:05.564Z,5.50
2022-11-12T04:15:34.122Z,5.30
2022-11-12T04:18:20.095Z,7.70
2022-11-12T04:21:09.710Z,5.43
2022-11-12T04:23:37.957Z,5.20
2022-11-12T04:26:23.626Z,5.30
2022-11-12T04:29:10.698Z,6.10
2022-11-12T04:31:39.119Z,5.07
2022-11-12T04:34:21.276Z,4.97
2022-11-12T04:36:58.215Z,5.37
2022-11-12T04:39:26.882Z,4.80
2022-11-12T04:42:12.639Z,5.17
2022-11-12T04:45:01.532Z,5.20
2022-11-12T04:47:38.639Z,4.47
2022-11-12T04:50:10.886Z,5.03
2022-11-12T04:52:40.486Z,4.20
2022-11-12T04:55:14.119Z,4.30
2022-11-12T04:57:42.278Z,4.73
2022-11-12T05:00:15.348Z,4.43
2022-11-12T05:02:53.246Z,5.07
2022-11-12T05:05:31.088Z,4.87
2022-11-12T05:08:02.430Z,4.67
2022-11-12T05:10:32.013Z,4.40
2022-11-12T05:15:59.108Z,3.90
2022-11-12T05:18:27.711Z,3.70
2022-11-12T05:23:43.267Z,4.37
2022-11-12T05:26:11.424Z,4.07
2022-11-12T05:28:39.736Z,3.70
2022-11-12T05:31:31.964Z,4.00
2022-11-12T05:34:01.748Z,4.17
2022-11-12T05:36:30.152Z,3.73
2022-11-12T05:39:00.194Z,3.87
2022-11-12T05:41:45.006Z,3.90
2022-11-12T05:44:22.811Z,4.73
2022-11-12T05:46:54.062Z,4.03
2022-11-12T05:49:22.813Z,4.30
2022-11-12T05:51:51.588Z,4.00
2022-11-12T05:54:20.321Z,3.83
2022-11-12T05:56:50.577Z,4.27
2022-11-12T05:59:18.628Z,3.83
2022-11-12T06:01:47.026Z,4.07
2022-11-12T06:04:17.550Z,4.07
2022-11-12T06:06:46.222Z,3.87
2022-11-12T06:09:16.851Z,3.80
2022-11-12T06:11:44.896Z,3.70
2022-11-12T06:14:13.292Z,4.63
2022-11-12T06:16:41.780Z,4.57
2022-11-12T06:19:10.245Z,4.07
2022-11-12T06:21:40.413Z,4.00
2022-11-12T06:24:09.271Z,5.10
2022-11-12T06:26:38.187Z,4.30
2022-11-12T06:29:07.042Z,4.40
2022-11-12T06:31:42.113Z,4.70
2022-11-12T06:34:12.590Z,4.67
2022-11-12T06:36:42.656Z,5.10
2022-11-12T06:39:12.708Z,5.03
2022-11-12T06:41:44.089Z,5.60
2022-11-12T06:44:14.686Z,5.73
2022-11-12T06:46:47.316Z,5.53
2022-11-12T06:49:19.465Z,5.40
2022-11-12T06:54:38.607Z,5.83
2022-11-12T06:57:16.075Z,5.10
2022-11-12T07:02:48.781Z,6.20
2022-11-12T07:05:17.478Z,6.67
2022-11-12T07:07:49.057Z,5.50
2022-11-12T07:10:17.643Z,6.50
2022-11-12T07:12:56.012Z,6.43
2022-11-12T07:15:43.947Z,6.60
2022-11-12T07:21:20.299Z,6.90
2022-11-12T07:26:31.804Z,7.37
2022-11-12T07:29:00.400Z,6.60
2022-11-12T07:31:39.241Z,7.47
2022-11-12T07:34:14.845Z,7.43
2022-11-12T07:36:43.277Z,7.43
2022-11-12T07:39:13.393Z,7.83
2022-11-12T07:41:42.879Z,7.43
2022-11-12T07:44:11.006Z,8.20
2022-11-12T07:46:39.120Z,7.73
2022-11-12T07:49:07.215Z,7.80
2022-11-12T07:51:35.511Z,8.27
2022-11-12T07:54:04.376Z,7.77
2022-11-12T07:56:32.600Z,7.93
2022-11-12T07:59:02.400Z,8.13
2022-11-12T08:01:32.398Z,7.57
2022-11-12T08:04:01.222Z,7.40
2022-11-12T08:06:30.409Z,6.70
2022-11-12T08:08:59.909Z,7.37
2022-11-12T08:11:28.294Z,7.93
2022-11-12T08:13:56.630Z,7.37
2022-11-12T08:16:26.891Z,7.63
2022-11-12T08:18:56.903Z,7.93
2022-11-12T08:21:25.723Z,8.27
2022-11-12T08:23:54.205Z,7.83
2022-11-12T08:26:23.372Z,7.70
2022-11-12T08:28:51.658Z,8.33
2022-11-12T08:31:22.401Z,7.77
2022-11-12T08:33:52.191Z,7.57
2022-11-12T08:36:20.675Z,8.00
2022-11-12T08:38:48.982Z,8.07
2022-11-12T08:41:23.272Z,8.10
2022-11-12T08:43:54.336Z,8.53
2022-11-12T08:46:26.695Z,7.90
2022-11-12T08:48:56.647Z,8.17
2022-11-12T08:54:08.054Z,8.70
2022-11-12T08:56:37.433Z,8.50
2022-11-12T08:59:07.702Z,8.00
2022-11-12T09:01:36.372Z,7.73
2022-11-12T09:04:09.323Z,9.07
2022-11-12T09:06:43.150Z,7.70
2022-11-12T09:09:14.002Z,7.57
2022-11-12T09:11:45.668Z,8.27
2022-11-12T09:14:14.357Z,7.63
2022-11-12T09:16:49.672Z,7.67
2022-11-12T09:19:25.591Z,7.83
2022-11-12T09:22:04.701Z,7.53
2022-11-12T09:24:42.095Z,7.67
2022-11-12T09:27:15.322Z,7.97
2022-11-12T09:29:44.682Z,7.60
2022-11-12T09:32:16.010Z,7.67
2022-11-12T09:34:46.378Z,7.73
2022-11-12T09:37:28.669Z,8.30
2022-11-12T09:39:57.469Z,7.10
2022-11-12T09:42:30.847Z,7.70
2022-11-12T09:45:05.733Z,7.47
2022-11-12T09:47:39.688Z,6.60
2022-11-12T09:50:28.355Z,7.07
2022-11-12T09:53:04.006Z,6.70
2022-11-12T09:55:40.057Z,6.13
2022-11-12T09:58:19.854Z,6.80
2022-11-12T10:00:59.018Z,6.67
2022-11-12T10:03:39.480Z,6.77
2022-11-12T10:06:19.495Z,6.47
2022-11-12T10:09:20.785Z,6.30
2022-11-12T10:16:00.045Z,6.87
2022-11-12T10:18:52.513Z,5.90
2022-11-12T10:21:42.368Z,6.07
2022-11-12T10:24:15.350Z,6.13
2022-11-12T10:26:44.403Z,5.90
2022-11-12T10:29:24.231Z,6.00
2022-11-12T10:31:52.783Z,5.67
2022-11-12T10:34:46.481Z,5.90
2022-11-12T10:37:42.020Z,6.47
2022-11-12T10:40:36.249Z,5.73
2022-11-12T10:43:13.736Z,5.73
2022-11-12T10:45:45.420Z,5.40
2022-11-12T10:48:27.359Z,5.87
2022-11-12T10:50:56.574Z,5.80
2022-11-12T10:53:36.674Z,5.97
2022-11-12T10:56:22.604Z,6.03
2022-11-12T10:59:12.773Z,5.73
2022-11-12T11:01:45.490Z,4.97
2022-11-12T11:04:24.054Z,5.70
2022-11-12T11:07:01.999Z,5.00
2022-11-12T11:09:32.785Z,5.03
2022-11-12T11:12:02.241Z,5.50
2022-11-12T11:14:33.582Z,5.10
2022-11-12T11:17:08.673Z,4.70
2022-11-12T11:19:43.362Z,4.80
2022-11-12T11:22:38.890Z,5.50
2022-11-12T11:25:21.912Z,5.33
2022-11-12T11:28:09.226Z,5.03
2022-11-12T11:30:42.831Z,4.87
2022-11-12T11:33:27.689Z,5.00
2022-11-12T11:36:09.930Z,4.97
2022-11-12T11:38:53.423Z,4.50
2022-11-12T11:41:50.790Z,4.67
2022-11-12T11:44:28.555Z,4.20
2022-11-12T11:47:12.637Z,4.83
2022-11-12T11:50:08.055Z,4.30
2022-11-12T11:52:47.183Z,4.60
2022-11-12T11:55:29.796Z,4.37
2022-11-12T11:58:11.031Z,4.60
2022-11-12T12:00:48.909Z,4.67
2022-11-12T12:03:21.913Z,3.97
2022-11-12T12:06:12.368Z,4.87
2022-11-12T12:09:22.108Z,4.53
2022-11-12T12:12:03.806Z,4.07
2022-11-12T12:14:51.152Z,4.67
2022-11-12T12:17:32.135Z,4.50
2022-11-12T12:20:07.638Z,4.47
2022-11-12T12:22:40.214Z,4.40
2022-11-12T12:25:15.972Z,4.30
2022-11-12T12:27:52.966Z,4.13
2022-11-12T12:30:25.129Z,4.03
2022-11-12T12:32:58.805Z,3.83
2022-11-12T12:35:32.333Z,3.83
2022-11-12T12:38:13.659Z,3.90
2022-11-12T12:40:51.612Z,3.90
2022-11-12T12:43:28.707Z,3.50
2022-11-12T12:45:59.178Z,3.90
2022-11-12T12:48:31.954Z,3.90
2022-11-12T12:51:00.532Z,4.20
2022-11-12T12:53:43.587Z,4.30
2022-11-12T12:56:48.902Z,3.90
2022-11-12T12:59:24.693Z,3.50
2022-11-12T13:02:00.610Z,4.03
2022-11-12T13:04:55.362Z,4.37
2022-11-12T13:07:43.764Z,4.00
2022-11-12T13:10:52.788Z,4.50
2022-11-12T13:13:34.230Z,3.93
2022-11-12T13:16:03.742Z,4.03
2022-11-12T13:19:02.575Z,4.17
2022-11-12T13:21:31.464Z,3.80
2022-11-12T13:24:11.216Z,4.50
2022-11-12T13:26:49.996Z,4.07
2022-11-12T13:29:24.605Z,4.50
2022-11-12T13:32:30.478Z,4.07
2022-11-12T13:35:40.810Z,3.70
2022-11-12T13:38:16.033Z,3.80
2022-11-12T13:40:47.543Z,3.90
2022-11-12T13:43:27.709Z,4.30
2022-11-12T13:46:01.101Z,3.80
2022-11-12T13:48:32.192Z,3.87
2022-11-12T13:51:15.206Z,3.90
2022-11-12T13:53:43.801Z,3.87
2022-11-12T13:56:12.388Z,3.37
2022-11-12T13:58:41.602Z,3.50
2022-11-12T14:01:12.971Z,3.50
2022-11-12T14:04:03.006Z,3.43
2022-11-12T14:06:37.782Z,3.60
2022-11-12T14:13:18.039Z,3.70
2022-11-12T14:16:16.109Z,3.60
2022-11-12T14:19:12.031Z,4.10
2022-11-12T14:24:36.717Z,3.90
2022-11-12T14:27:51.975Z,3.20
2022-11-12T14:30:32.751Z,3.70
2022-11-12T14:33:10.164Z,3.13
2022-11-12T14:35:55.097Z,2.83
2022-11-12T14:38:33.422Z,3.25
2022-11-12T14:41:20.424Z,3.28
2022-11-12T14:44:10.952Z,2.70
2022-11-12T14:46:47.027Z,2.60
2022-11-12T14:49:23.355Z,3.13
2022-11-12T14:52:09.988Z,3.30
2022-11-12T14:54:44.407Z,3.20
2022-11-12T14:57:21.896Z,3.33
2022-11-12T14:59:50.822Z,3.73
2022-11-12T15:02:46.919Z,3.37
2022-11-12T15:05:17.092Z,3.30
2022-11-12T15:07:58.185Z,4.83
2022-11-12T15:10:36.884Z,3.97
2022-11-12T15:13:08.701Z,4.13
2022-11-12T15:15:39.936Z,3.50
2022-11-12T15:18:15.764Z,3.57
2022-11-12T15:20:44.028Z,3.20
2022-11-12T15:23:19.422Z,3.50
2022-11-12T15:25:59.262Z,3.13
2022-11-12T15:28:28.180Z,3.17
2022-11-12T15:31:04.007Z,3.30
2022-11-12T15:33:32.382Z,3.40
2022-11-12T15:36:02.493Z,3.27
2022-11-12T15:38:38.058Z,3.03
2022-11-12T15:41:08.368Z,3.20
2022-11-12T15:43:42.584Z,3.20
2022-11-12T15:46:15.290Z,2.73
2022-11-12T15:48:43.704Z,2.97
2022-11-12T15:51:12.578Z,3.10
2022-11-12T15:53:40.920Z,3.53
2022-11-12T15:56:17.477Z,3.30
2022-11-12T15:58:45.819Z,3.03
2022-11-12T16:01:14.305Z,4.23
2022-11-12T16:03:42.473Z,3.63
2022-11-12T16:06:13.864Z,3.37
2022-11-12T16:08:43.732Z,3.63
2022-11-12T16:11:28.587Z,3.50
2022-11-12T16:13:56.907Z,3.57
2022-11-12T16:16:25.218Z,3.43
2022-11-12T16:19:11.001Z,4.37
2022-11-12T16:21:39.869Z,4.70
2022-11-12T16:30:26.538Z,4.73
2022-11-12T16:32:55.092Z,4.30
2022-11-12T16:55:29.085Z,8.53
2022-11-12T16:58:35.719Z,14.50
2022-11-12T17:01:25.547Z,8.53
2022-11-12T17:04:07.259Z,6.70
2022-11-12T17:06:40.958Z,5.67
2022-11-12T17:09:15.841Z,5.27
2022-11-12T17:12:36.425Z,4.60
2022-11-12T17:15:16.606Z,6.83
2022-11-12T17:17:45.582Z,5.00
2022-11-12T18:02:06.438Z,8.87
2022-11-12T18:07:49.124Z,7.97
2022-11-12T18:10:19.646Z,9.03
2022-11-12T18:12:48.333Z,6.37
2022-11-12T18:15:17.105Z,8.27
2022-11-12T18:17:55.336Z,6.77
2022-11-12T18:20:23.805Z,6.00
2022-11-12T18:22:52.364Z,6.47
2022-11-12T18:25:20.593Z,7.77
2022-11-12T18:27:54.806Z,6.13
2022-11-12T18:30:23.777Z,7.87
2022-11-12T18:32:53.442Z,7.63
2022-11-12T18:35:25.839Z,7.30
2022-11-12T19:34:39.230Z,10.73
2022-11-12T19:39:44.441Z,8.90
2022-11-12T19:42:13.763Z,10.27
2022-11-12T19:50:31.237Z,9.07
2022-11-12T19:53:04.270Z,10.67
2022-11-12T19:55:51.977Z,11.27
2022-11-12T19:58:21.319Z,15.73
2022-11-12T20:01:04.141Z,12.70
2022-11-12T20:15:05.599Z,9.73
2022-11-12T20:17:34.626Z,15.07
2022-11-12T21:40:40.326Z,8.57
2022-11-12T21:43:09.180Z,9.00
2022-11-12T21:49:07.696Z,9.50
2022-11-12T21:51:54.215Z,9.07
2022-11-12T22:06:31.833Z,9.10
2022-11-12T22:09:00.248Z,9.33
2022-11-12T22:11:35.611Z,8.77
2022-11-12T22:14:04.390Z,9.23
2022-11-12T22:16:32.642Z,9.63
2022-11-12T22:19:02.959Z,9.43
2022-11-12T22:21:39.714Z,9.70
2022-11-12T22:24:09.685Z,10.60
2022-11-12T22:26:53.104Z,10.50
2022-11-12T22:29:21.725Z,10.40
2022-11-12T22:47:48.621Z,8.73
2022-11-12T22:50:22.492Z,9.07
2022-11-12T22:56:03.535Z,8.90
2022-11-12T23:01:10.789Z,11.80
2022-11-12T23:06:19.079Z,8.87
2022-11-12T23:08:51.589Z,8.50
2022-11-12T23:19:30.509Z,8.73
2022-11-12T23:21:58.713Z,9.10
2022-11-12T23:24:27.359Z,9.60
2022-11-12T23:27:07.312Z,9.07
2022-11-12T23:29:41.835Z,8.47
2022-11-12T23:32:16.422Z,8.23
2022-11-12T23:41:06.690Z,9.27
